createdAt,value
2018-02-11T00:02:03.598Z,2.5
2018-02-11T00:07:03.516Z,2.4
2018-02-11T00:12:03.650Z,2.5
2018-02-11T00:17:03.776Z,2.4
2018-02-11T00:22:03.196Z,2.4
2018-02-11T00:27:03.230Z,2.4
2018-02-11T00:32:03.331Z,2.3
2018-02-11T00:37:03.443Z,2.3
2018-02-11T00:42:03.391Z,2.3
2018-02-11T00:47:03.599Z,2.3
2018-02-11T00:52:03.441Z,2.3
2018-02-11T00:57:03.743Z,2.3
2018-02-11T01:02:03.930Z,2.2
2018-02-11T01:07:03.052Z,2.2
2018-02-11T01:12:03.268Z,2.2
2018-02-11T01:17:03.247Z,2.0
2018-02-11T01:22:03.354Z,2.0
2018-02-11T01:27:03.377Z,2.0
2018-02-11T01:32:03.532Z,2.0
2018-02-11T01:37:03.640Z,1.9
2018-02-11T01:42:02.722Z,1.9
2018-02-11T01:47:02.960Z,1.8
2018-02-11T01:52:03.064Z,1.8
2018-02-11T01:57:03.049Z,1.8
2018-02-11T02:02:03.278Z,1.7
2018-02-11T02:07:03.238Z,1.7
2018-02-11T02:12:03.447Z,1.7
2018-02-11T02:17:03.615Z,1.7
2018-02-11T02:22:03.054Z,1.7
2018-02-11T02:27:03.077Z,1.7
2018-02-11T02:32:03.180Z,1.7
2018-02-11T02:37:03.286Z,1.7
2018-02-11T02:42:03.306Z,1.7
2018-02-11T02:47:03.390Z,1.7
2018-02-11T02:52:03.601Z,1.7
2018-02-11T02:57:02.652Z,1.7
2018-02-11T03:02:02.804Z,1.7
2018-02-11T03:07:02.920Z,1.8
2018-02-11T03:12:03.071Z,1.8
2018-02-11T03:17:03.207Z,1.8
2018-02-11T03:22:03.556Z,1.8
2018-02-11T03:27:03.595Z,1.8
2018-02-11T03:32:03.669Z,1.8
2018-02-11T03:37:03.176Z,1.8
2018-02-11T03:42:03.222Z,1.8
2018-02-11T03:47:03.292Z,1.8
2018-02-11T03:52:03.369Z,1.8
2018-02-11T03:57:03.512Z,1.8
2018-02-11T04:02:03.598Z,1.9
2018-02-11T04:07:02.968Z,1.9
2018-02-11T04:12:03.179Z,1.9
2018-02-11T04:17:03.411Z,1.9
2018-02-11T04:22:03.501Z,1.9
2018-02-11T04:27:03.533Z,2.0
2018-02-11T04:32:03.656Z,2.0
2018-02-11T04:37:02.804Z,2.0
2018-02-11T04:42:03.001Z,2.1
2018-02-11T04:47:03.200Z,2.1
2018-02-11T04:52:03.216Z,2.0
2018-02-11T04:57:03.189Z,2.1
2018-02-11T05:02:03.305Z,2.1
2018-02-11T05:07:03.529Z,2.1
2018-02-11T05:12:02.775Z,2.1
2018-02-11T05:17:03.250Z,2.1
2018-02-11T05:22:03.266Z,2.1
2018-02-11T05:27:03.293Z,2.0
2018-02-11T05:32:03.520Z,2.0
2018-02-11T05:37:03.517Z,2.1
2018-02-11T05:42:03.511Z,2.1
2018-02-11T05:47:04.777Z,2.1
2018-02-11T05:52:02.724Z,2.1
2018-02-11T05:57:02.884Z,2.2
2018-02-11T06:02:03.267Z,2.2
2018-02-11T06:07:03.252Z,2.1
2018-02-11T06:12:03.513Z,2.1
2018-02-11T06:17:13.073Z,2.2
2018-02-11T06:22:02.887Z,2.1
2018-02-11T06:27:03.231Z,2.1
2018-02-11T06:32:13.668Z,2.1
2018-02-11T06:37:03.486Z,2.1
2018-02-11T06:42:02.788Z,2.1
2018-02-11T06:47:13.786Z,2.1
2018-02-11T06:52:03.558Z,2.1
2018-02-11T06:57:02.678Z,2.1
2018-02-11T07:02:13.350Z,2.2
2018-02-11T07:07:03.278Z,2.3
2018-02-11T07:12:03.495Z,2.4
2018-02-11T07:17:17.827Z,2.4
2018-02-11T07:22:02.744Z,2.4
2018-02-11T07:27:02.882Z,2.6
2018-02-11T07:32:13.480Z,2.7
2018-02-11T07:37:03.254Z,2.8
2018-02-11T07:42:03.429Z,2.9
2018-02-11T07:47:14.024Z,2.8
2018-02-11T07:52:02.626Z,3.0
2018-02-11T07:57:02.846Z,3.1
2018-02-11T08:02:13.324Z,3.3
2018-02-11T08:07:03.436Z,3.3
2018-02-11T08:12:03.526Z,3.5
2018-02-11T08:17:23.227Z,3.5
2018-02-11T08:22:02.992Z,3.5
2018-02-11T08:27:03.171Z,3.6
2018-02-11T08:32:13.829Z,3.5
2018-02-11T08:37:03.528Z,3.7
2018-02-11T08:42:03.537Z,3.6
2018-02-11T08:47:18.025Z,3.6
2018-02-11T08:52:02.775Z,3.6
2018-02-11T08:57:02.969Z,3.7
2018-02-11T09:02:13.621Z,3.7
2018-02-11T09:07:03.458Z,3.6
2018-02-11T09:12:02.723Z,3.6
2018-02-11T09:17:23.185Z,3.6
2018-02-11T09:22:03.202Z,3.5
2018-02-11T09:27:03.371Z,3.4
2018-02-11T09:32:13.882Z,3.5
2018-02-11T09:37:02.628Z,3.6
2018-02-11T09:42:02.785Z,3.8
2018-02-11T09:47:13.295Z,3.7
2018-02-11T09:52:03.052Z,4.3
2018-02-11T09:57:03.215Z,4.3
2018-02-11T10:02:13.639Z,4.7
2018-02-11T10:07:03.673Z,5.1
2018-02-11T10:12:02.934Z,5.1
2018-02-11T10:17:13.054Z,5.3
2018-02-11T10:22:03.237Z,5.3
2018-02-11T10:27:03.404Z,5.7
2018-02-11T10:32:13.914Z,5.6
2018-02-11T10:37:02.658Z,5.6
2018-02-11T10:42:02.850Z,5.6
2018-02-11T10:47:13.325Z,5.6
2018-02-11T10:52:03.222Z,5.6
2018-02-11T10:57:03.425Z,5.5
2018-02-11T11:02:13.848Z,5.6
2018-02-11T11:07:02.983Z,5.5
2018-02-11T11:12:03.514Z,5.5
2018-02-11T11:17:14.109Z,5.5
2018-02-11T11:22:02.906Z,5.5
2018-02-11T11:27:03.087Z,5.6
2018-02-11T11:32:13.708Z,5.5
2018-02-11T11:37:03.499Z,5.3
2018-02-11T11:42:03.539Z,5.2
2018-02-11T11:47:16.005Z,5.2
2018-02-11T11:52:02.924Z,5.2
2018-02-11T11:57:03.330Z,5.4
2018-02-11T12:02:13.956Z,5.8
2018-02-11T12:07:02.742Z,5.8
2018-02-11T12:12:02.998Z,5.7
2018-02-11T12:17:13.763Z,5.6
2018-02-11T12:22:03.548Z,5.6
2018-02-11T12:27:03.602Z,5.5
2018-02-11T12:32:13.224Z,5.5
2018-02-11T12:37:02.985Z,5.5
2018-02-11T12:42:03.145Z,5.6
2018-02-11T12:47:13.136Z,5.6
2018-02-11T12:52:02.772Z,5.6
2018-02-11T12:57:02.985Z,5.5
2018-02-11T13:02:13.284Z,5.6
2018-02-11T13:07:03.215Z,5.7
2018-02-11T13:12:03.336Z,5.7
2018-02-11T13:17:13.876Z,5.8
2018-02-11T13:22:02.709Z,5.9
2018-02-11T13:27:02.894Z,5.8
2018-02-11T13:32:10.734Z,5.8
2018-02-11T13:37:02.900Z,5.7
2018-02-11T13:42:03.059Z,5.6
2018-02-11T13:47:13.699Z,5.6
2018-02-11T13:52:03.475Z,5.6
2018-02-11T13:57:03.590Z,5.6
2018-02-11T14:02:13.194Z,5.5
2018-02-11T14:07:03.118Z,5.5
2018-02-11T14:12:03.462Z,5.5
2018-02-11T14:17:13.924Z,5.5
2018-02-11T14:22:02.750Z,5.5
2018-02-11T14:27:02.989Z,5.4
2018-02-11T14:32:13.429Z,5.3
2018-02-11T14:37:03.306Z,5.3
2018-02-11T14:42:03.408Z,5.4
2018-02-11T14:47:13.868Z,5.5
2018-02-11T14:52:02.764Z,5.5
2018-02-11T14:57:02.920Z,5.5
2018-02-11T15:02:23.360Z,5.5
2018-02-11T15:07:03.477Z,5.5
2018-02-11T15:12:02.713Z,5.5
2018-02-11T15:17:13.656Z,5.4
2018-02-11T15:22:03.268Z,5.3
2018-02-11T15:27:03.505Z,5.3
2018-02-11T15:32:13.966Z,5.3
2018-02-11T15:37:02.822Z,5.4
2018-02-11T15:42:03.013Z,5.4
2018-02-11T15:47:13.701Z,5.3
2018-02-11T15:52:03.484Z,5.4
2018-02-11T15:57:02.561Z,5.4
2018-02-11T16:02:13.189Z,5.2
2018-02-11T16:07:03.321Z,5.2
2018-02-11T16:12:03.568Z,5.1
2018-02-11T16:17:13.199Z,5.1
2018-02-11T16:22:02.955Z,5.1
2018-02-11T16:27:03.270Z,5.1
2018-02-11T16:32:13.632Z,5.1
2018-02-11T16:37:03.014Z,5.1
2018-02-11T16:42:02.859Z,5.1
2018-02-11T16:47:09.381Z,5.1
2018-02-11T16:52:03.575Z,5.1
2018-02-11T16:57:02.910Z,5.0
2018-02-11T17:02:10.803Z,5.0
2018-02-11T17:07:03.563Z,5.0
2018-02-11T17:12:02.821Z,5.0
2018-02-11T17:17:03.710Z,5.1
2018-02-11T17:22:03.285Z,5.0
2018-02-11T17:27:03.346Z,4.9
2018-02-11T17:32:03.727Z,5.1
2018-02-11T17:37:03.680Z,5.1
2018-02-11T17:42:02.812Z,5.2
2018-02-11T17:47:03.137Z,5.2
2018-02-11T17:52:03.108Z,5.1
2018-02-11T17:57:03.237Z,5.1
2018-02-11T18:02:03.337Z,5.0
2018-02-11T18:07:03.589Z,4.9
2018-02-11T18:12:02.835Z,4.8
2018-02-11T18:17:03.956Z,4.7
2018-02-11T18:22:03.416Z,4.5
2018-02-11T18:27:03.391Z,4.5
2018-02-11T18:32:03.511Z,4.3
2018-02-11T18:37:03.632Z,4.2
2018-02-11T18:42:02.800Z,4.2
2018-02-11T18:47:03.978Z,4.1
2018-02-11T18:52:03.124Z,4.2
2018-02-11T18:57:03.272Z,4.3
2018-02-11T19:02:04.128Z,4.3
2018-02-11T19:07:03.403Z,4.3
2018-02-11T19:12:03.877Z,4.3
2018-02-11T19:17:03.409Z,4.3
2018-02-11T19:22:03.231Z,4.3
2018-02-11T19:27:03.223Z,4.3
2018-02-11T19:32:04.537Z,4.3
2018-02-11T19:37:03.597Z,4.3
2018-02-11T19:42:03.562Z,4.2
2018-02-11T19:47:04.503Z,4.0
2018-02-11T19:52:02.949Z,3.9
2018-02-11T19:57:03.283Z,3.8
2018-02-11T20:02:03.588Z,3.8
2018-02-11T20:07:03.338Z,3.8
2018-02-11T20:12:03.877Z,3.9
2018-02-11T20:17:03.964Z,3.9
2018-02-11T20:22:02.944Z,3.9
2018-02-11T20:27:02.904Z,3.9
2018-02-11T20:32:03.851Z,3.8
2018-02-11T20:37:03.375Z,3.8
2018-02-11T20:42:03.493Z,3.7
2018-02-11T20:47:04.690Z,3.7
2018-02-11T20:52:02.628Z,3.7
2018-02-11T20:57:02.846Z,3.7
2018-02-11T21:02:03.190Z,3.8
2018-02-11T21:07:03.127Z,3.8
2018-02-11T21:12:03.321Z,3.8
2018-02-11T21:17:03.486Z,3.8
2018-02-11T21:22:03.564Z,3.8
2018-02-11T21:27:03.695Z,3.8
2018-02-11T21:32:02.869Z,3.8
2018-02-11T21:37:03.065Z,3.7
2018-02-11T21:42:03.134Z,3.7
2018-02-11T21:47:03.277Z,3.7
2018-02-11T21:52:03.353Z,3.5
2018-02-11T21:57:03.491Z,3.5
2018-02-11T22:02:03.615Z,3.3
2018-02-11T22:07:03.012Z,3.2
2018-02-11T22:12:03.218Z,3.1
2018-02-11T22:17:03.386Z,3.0
2018-02-11T22:22:03.489Z,3.0
2018-02-11T22:27:03.535Z,3.0
2018-02-11T22:32:03.678Z,3.0
2018-02-11T22:37:02.968Z,3.1
2018-02-11T22:42:03.037Z,3.0
2018-02-11T22:47:03.289Z,3.0
2018-02-11T22:52:03.235Z,3.1
2018-02-11T22:57:03.329Z,3.1
2018-02-11T23:02:03.525Z,3.1
2018-02-11T23:07:03.033Z,3.2
2018-02-11T23:12:03.262Z,3.3
2018-02-11T23:22:03.905Z,3.4
2018-02-11T23:27:03.564Z,3.3
2018-02-11T23:32:03.750Z,3.3
2018-02-11T23:37:03.412Z,3.3
2018-02-11T23:42:03.496Z,3.2
2018-02-11T23:47:03.626Z,3.0
2018-02-11T23:52:02.854Z,3.0
2018-02-11T23:57:02.994Z,3.0
